sensor_id;sensor_type;location;lat;lon;timestamp;P1;durP1;ratioP1;P2;durP2;ratioP2
64550;SDS011;50945;44.472;-123.352;2022-09-01T00:01:16;10.02;;;7.97;;
64550;SDS011;50945;44.472;-123.352;2022-09-01T00:03:47;10.40;;;8.63;;
64550;SDS011;50945;44.472;-123.352;2022-09-01T00:06:14;10.98;;;8.27;;
64550;SDS011;50945;44.472;-123.352;2022-09-01T00:08:49;10.15;;;7.68;;
64550;SDS011;50945;44.472;-123.352;2022-09-01T00:11:16;10.90;;;7.82;;
64550;SDS011;50945;44.472;-123.352;2022-09-01T00:13:44;15.45;;;8.02;;
64550;SDS011;50945;44.472;-123.352;2022-09-01T00:16:10;9.02;;;6.63;;
64550;SDS011;50945;44.472;-123.352;2022-09-01T00:18:41;9.13;;;6.50;;
64550;SDS011;50945;44.472;-123.352;2022-09-01T00:21:11;7.78;;;6.93;;
64550;SDS011;50945;44.472;-123.352;2022-09-01T00:23:38;12.48;;;7.78;;
64550;SDS011;50945;44.472;-123.352;2022-09-01T00:26:04;8.45;;;6.25;;
64550;SDS011;50945;44.472;-123.352;2022-09-01T00:28:34;8.43;;;6.10;;
64550;SDS011;50945;44.472;-123.352;2022-09-01T00:31:02;6.65;;;5.88;;
64550;SDS011;50945;44.472;-123.352;2022-09-01T00:33:31;9.68;;;6.40;;
64550;SDS011;50945;44.472;-123.352;2022-09-01T00:35:58;7.18;;;5.63;;
64550;SDS011;50945;44.472;-123.352;2022-09-01T00:38:24;7.35;;;5.55;;
64550;SDS011;50945;44.472;-123.352;2022-09-01T00:40:50;7.80;;;5.20;;
64550;SDS011;50945;44.472;-123.352;2022-09-01T00:43:20;16.77;;;5.82;;
64550;SDS011;50945;44.472;-123.352;2022-09-01T00:45:48;9.82;;;5.13;;
64550;SDS011;50945;44.472;-123.352;2022-09-01T00:48:16;9.35;;;5.28;;
64550;SDS011;50945;44.472;-123.352;2022-09-01T00:50:45;18.15;;;5.70;;
64550;SDS011;50945;44.472;-123.352;2022-09-01T00:53:12;10.52;;;5.05;;
64550;SDS011;50945;44.472;-123.352;2022-09-01T00:55:38;7.45;;;5.38;;
64550;SDS011;50945;44.472;-123.352;2022-09-01T00:58:05;7.72;;;4.90;;
64550;SDS011;50945;44.472;-123.352;2022-09-01T01:00:34;5.30;;;4.35;;
64550;SDS011;50945;44.472;-123.352;2022-09-01T01:03:11;6.53;;;4.93;;
64550;SDS011;50945;44.472;-123.352;2022-09-01T01:05:40;6.00;;;4.50;;
64550;SDS011;50945;44.472;-123.352;2022-09-01T01:08:27;5.45;;;4.35;;
64550;SDS011;50945;44.472;-123.352;2022-09-01T01:11:01;6.10;;;4.22;;
64550;SDS011;50945;44.472;-123.352;2022-09-01T01:13:29;7.32;;;4.85;;
64550;SDS011;50945;44.472;-123.352;2022-09-01T01:16:01;7.03;;;4.30;;
64550;SDS011;50945;44.472;-123.352;2022-09-01T01:18:40;4.78;;;4.28;;
64550;SDS011;50945;44.472;-123.352;2022-09-01T01:21:09;6.60;;;4.60;;
64550;SDS011;50945;44.472;-123.352;2022-09-01T01:24:01;7.03;;;4.53;;
64550;SDS011;50945;44.472;-123.352;2022-09-01T01:26:50;6.18;;;4.35;;
64550;SDS011;50945;44.472;-123.352;2022-09-01T01:29:18;6.15;;;4.20;;
64550;SDS011;50945;44.472;-123.352;2022-09-01T01:31:46;5.47;;;4.45;;
64550;SDS011;50945;44.472;-123.352;2022-09-01T01:34:13;5.82;;;4.10;;
64550;SDS011;50945;44.472;-123.352;2022-09-01T01:36:42;5.63;;;4.22;;
64550;SDS011;50945;44.472;-123.352;2022-09-01T01:39:13;5.25;;;3.92;;
64550;SDS011;50945;44.472;-123.352;2022-09-01T01:41:43;6.22;;;4.60;;
64550;SDS011;50945;44.472;-123.352;2022-09-01T01:44:14;7.50;;;4.38;;
64550;SDS011;50945;44.472;-123.352;2022-09-01T01:46:45;8.70;;;4.10;;
64550;SDS011;50945;44.472;-123.352;2022-09-01T01:49:15;3.88;;;3.47;;
64550;SDS011;50945;44.472;-123.352;2022-09-01T01:51:44;4.70;;;3.67;;
64550;SDS011;50945;44.472;-123.352;2022-09-01T01:54:12;5.32;;;3.75;;
64550;SDS011;50945;44.472;-123.352;2022-09-01T01:56:40;4.95;;;4.30;;
64550;SDS011;50945;44.472;-123.352;2022-09-01T01:59:06;4.68;;;3.40;;
64550;SDS011;50945;44.472;-123.352;2022-09-01T02:01:35;4.22;;;3.67;;
64550;SDS011;50945;44.472;-123.352;2022-09-01T02:04:03;4.55;;;3.70;;
64550;SDS011;50945;44.472;-123.352;2022-09-01T02:06:31;4.63;;;3.97;;
64550;SDS011;50945;44.472;-123.352;2022-09-01T02:08:59;4.35;;;3.60;;
64550;SDS011;50945;44.472;-123.352;2022-09-01T02:11:27;4.97;;;4.38;;
64550;SDS011;50945;44.472;-123.352;2022-09-01T02:13:58;4.20;;;3.63;;
64550;SDS011;50945;44.472;-123.352;2022-09-01T02:16:29;5.07;;;3.35;;
64550;SDS011;50945;44.472;-123.352;2022-09-01T02:18:57;7.07;;;3.65;;
64550;SDS011;50945;44.472;-123.352;2022-09-01T02:21:24;5.00;;;3.80;;
64550;SDS011;50945;44.472;-123.352;2022-09-01T02:23:54;4.40;;;3.70;;
64550;SDS011;50945;44.472;-123.352;2022-09-01T02:26:34;4.25;;;3.80;;
64550;SDS011;50945;44.472;-123.352;2022-09-01T02:29:07;5.35;;;3.40;;
64550;SDS011;50945;44.472;-123.352;2022-09-01T02:31:42;5.30;;;3.60;;
64550;SDS011;50945;44.472;-123.352;2022-09-01T02:34:09;4.88;;;3.67;;
64550;SDS011;50945;44.472;-123.352;2022-09-01T02:36:41;3.65;;;3.28;;
64550;SDS011;50945;44.472;-123.352;2022-09-01T02:39:15;4.40;;;3.70;;
64550;SDS011;50945;44.472;-123.352;2022-09-01T02:41:44;5.07;;;4.03;;
64550;SDS011;50945;44.472;-123.352;2022-09-01T02:44:11;4.85;;;3.28;;
64550;SDS011;50945;44.472;-123.352;2022-09-01T02:46:39;5.32;;;3.70;;
64550;SDS011;50945;44.472;-123.352;2022-09-01T02:49:10;4.13;;;3.38;;
64550;SDS011;50945;44.472;-123.352;2022-09-01T02:51:49;4.55;;;3.70;;
64550;SDS011;50945;44.472;-123.352;2022-09-01T02:54:22;3.67;;;3.35;;
64550;SDS011;50945;44.472;-123.352;2022-09-01T02:56:50;4.43;;;3.65;;
64550;SDS011;50945;44.472;-123.352;2022-09-01T02:59:19;3.67;;;3.30;;
64550;SDS011;50945;44.472;-123.352;2022-09-01T03:01:48;6.35;;;3.78;;
64550;SDS011;50945;44.472;-123.352;2022-09-01T03:04:17;4.05;;;3.42;;
64550;SDS011;50945;44.472;-123.352;2022-09-01T03:06:44;4.20;;;3.35;;
64550;SDS011;50945;44.472;-123.352;2022-09-01T03:09:13;4.82;;;3.83;;
64550;SDS011;50945;44.472;-123.352;2022-09-01T03:11:42;5.07;;;3.92;;
64550;SDS011;50945;44.472;-123.352;2022-09-01T03:14:10;5.80;;;3.55;;
64550;SDS011;50945;44.472;-123.352;2022-09-01T03:16:36;5.57;;;3.40;;
64550;SDS011;50945;44.472;-123.352;2022-09-01T03:19:04;4.45;;;3.40;;
64550;SDS011;50945;44.472;-123.352;2022-09-01T03:21:36;5.55;;;4.13;;
64550;SDS011;50945;44.472;-123.352;2022-09-01T03:24:06;4.00;;;3.45;;
64550;SDS011;50945;44.472;-123.352;2022-09-01T03:26:33;4.55;;;3.33;;
64550;SDS011;50945;44.472;-123.352;2022-09-01T03:29:01;5.47;;;3.63;;
64550;SDS011;50945;44.472;-123.352;2022-09-01T03:31:28;5.78;;;3.80;;
64550;SDS011;50945;44.472;-123.352;2022-09-01T03:33:55;4.60;;;3.58;;
64550;SDS011;50945;44.472;-123.352;2022-09-01T03:36:22;5.18;;;3.88;;
64550;SDS011;50945;44.472;-123.352;2022-09-01T03:38:49;5.63;;;4.18;;
64550;SDS011;50945;44.472;-123.352;2022-09-01T03:41:18;5.38;;;4.07;;
64550;SDS011;50945;44.472;-123.352;2022-09-01T03:46:19;4.57;;;3.28;;
64550;SDS011;50945;44.472;-123.352;2022-09-01T03:48:47;6.53;;;3.70;;
64550;SDS011;50945;44.472;-123.352;2022-09-01T03:51:16;4.60;;;3.67;;
64550;SDS011;50945;44.472;-123.352;2022-09-01T03:53:43;15.20;;;4.10;;
64550;SDS011;50945;44.472;-123.352;2022-09-01T03:56:11;6.55;;;3.80;;
64550;SDS011;50945;44.472;-123.352;2022-09-01T03:58:40;5.70;;;3.47;;
64550;SDS011;50945;44.472;-123.352;2022-09-01T04:01:11;5.00;;;3.30;;
64550;SDS011;50945;44.472;-123.352;2022-09-01T04:03:39;4.90;;;3.60;;
64550;SDS011;50945;44.472;-123.352;2022-09-01T04:06:06;4.63;;;3.58;;
64550;SDS011;50945;44.472;-123.352;2022-09-01T04:08:34;6.00;;;3.38;;
64550;SDS011;50945;44.472;-123.352;2022-09-01T04:11:03;4.75;;;3.80;;
64550;SDS011;50945;44.472;-123.352;2022-09-01T04:13:37;4.47;;;3.63;;
64550;SDS011;50945;44.472;-123.352;2022-09-01T04:16:06;5.65;;;4.18;;
64550;SDS011;50945;44.472;-123.352;2022-09-01T04:19:01;5.25;;;3.25;;
64550;SDS011;50945;44.472;-123.352;2022-09-01T04:21:40;4.25;;;3.50;;
64550;SDS011;50945;44.472;-123.352;2022-09-01T04:24:10;4.45;;;3.78;;
64550;SDS011;50945;44.472;-123.352;2022-09-01T04:26:40;6.05;;;3.70;;
64550;SDS011;50945;44.472;-123.352;2022-09-01T04:29:07;5.30;;;3.60;;
64550;SDS011;50945;44.472;-123.352;2022-09-01T04:31:37;4.00;;;3.33;;
64550;SDS011;50945;44.472;-123.352;2022-09-01T04:34:05;3.85;;;3.22;;
64550;SDS011;50945;44.472;-123.352;2022-09-01T04:36:41;6.13;;;3.60;;
64550;SDS011;50945;44.472;-123.352;2022-09-01T04:39:11;6.35;;;3.47;;
64550;SDS011;50945;44.472;-123.352;2022-09-01T04:41:42;5.50;;;3.70;;
64550;SDS011;50945;44.472;-123.352;2022-09-01T04:44:13;4.45;;;3.08;;
64550;SDS011;50945;44.472;-123.352;2022-09-01T04:46:43;4.18;;;3.40;;
64550;SDS011;50945;44.472;-123.352;2022-09-01T04:49:13;6.22;;;4.03;;
64550;SDS011;50945;44.472;-123.352;2022-09-01T04:51:45;6.13;;;3.67;;
64550;SDS011;50945;44.472;-123.352;2022-09-01T04:54:14;4.85;;;3.53;;
64550;SDS011;50945;44.472;-123.352;2022-09-01T04:56:42;6.28;;;3.90;;
64550;SDS011;50945;44.472;-123.352;2022-09-01T04:59:11;4.80;;;3.72;;
64550;SDS011;50945;44.472;-123.352;2022-09-01T05:01:38;6.50;;;3.78;;
64550;SDS011;50945;44.472;-123.352;2022-09-01T05:04:13;6.70;;;4.38;;
64550;SDS011;50945;44.472;-123.352;2022-09-01T05:06:45;7.25;;;3.83;;
64550;SDS011;50945;44.472;-123.352;2022-09-01T05:09:19;6.57;;;3.95;;
64550;SDS011;50945;44.472;-123.352;2022-09-01T05:11:45;7.10;;;3.90;;
64550;SDS011;50945;44.472;-123.352;2022-09-01T05:14:13;7.25;;;4.00;;
64550;SDS011;50945;44.472;-123.352;2022-09-01T05:16:43;5.38;;;3.90;;
64550;SDS011;50945;44.472;-123.352;2022-09-01T05:19:09;6.05;;;3.67;;
64550;SDS011;50945;44.472;-123.352;2022-09-01T05:21:40;4.75;;;3.70;;
64550;SDS011;50945;44.472;-123.352;2022-09-01T05:24:12;5.82;;;3.67;;
64550;SDS011;50945;44.472;-123.352;2022-09-01T05:26:40;5.88;;;3.75;;
64550;SDS011;50945;44.472;-123.352;2022-09-01T05:29:08;4.60;;;3.60;;
64550;SDS011;50945;44.472;-123.352;2022-09-01T05:31:38;5.95;;;3.92;;
64550;SDS011;50945;44.472;-123.352;2022-09-01T05:34:06;7.65;;;4.20;;
64550;SDS011;50945;44.472;-123.352;2022-09-01T05:36:34;6.05;;;4.18;;
64550;SDS011;50945;44.472;-123.352;2022-09-01T05:39:04;6.10;;;3.85;;
64550;SDS011;50945;44.472;-123.352;2022-09-01T05:41:31;6.35;;;3.80;;
64550;SDS011;50945;44.472;-123.352;2022-09-01T05:44:01;9.02;;;3.70;;
64550;SDS011;50945;44.472;-123.352;2022-09-01T05:46:32;6.30;;;3.72;;
64550;SDS011;50945;44.472;-123.352;2022-09-01T05:49:02;6.10;;;3.88;;
64550;SDS011;50945;44.472;-123.352;2022-09-01T05:51:31;5.90;;;3.97;;
64550;SDS011;50945;44.472;-123.352;2022-09-01T05:54:02;4.63;;;3.42;;
64550;SDS011;50945;44.472;-123.352;2022-09-01T05:56:30;5.57;;;3.90;;
64550;SDS011;50945;44.472;-123.352;2022-09-01T05:58:58;5.45;;;3.83;;
64550;SDS011;50945;44.472;-123.352;2022-09-01T06:01:27;5.10;;;3.50;;
64550;SDS011;50945;44.472;-123.352;2022-09-01T06:03:58;5.22;;;3.45;;
64550;SDS011;50945;44.472;-123.352;2022-09-01T06:06:34;4.65;;;3.53;;
64550;SDS011;50945;44.472;-123.352;2022-09-01T06:09:06;4.57;;;3.55;;
64550;SDS011;50945;44.472;-123.352;2022-09-01T06:11:33;5.80;;;3.72;;
64550;SDS011;50945;44.472;-123.352;2022-09-01T06:13:59;5.95;;;3.65;;
64550;SDS011;50945;44.472;-123.352;2022-09-01T06:16:26;4.65;;;3.42;;
64550;SDS011;50945;44.472;-123.352;2022-09-01T06:18:53;6.15;;;3.70;;
64550;SDS011;50945;44.472;-123.352;2022-09-01T06:21:24;6.38;;;3.40;;
64550;SDS011;50945;44.472;-123.352;2022-09-01T06:23:53;5.68;;;3.67;;
64550;SDS011;50945;44.472;-123.352;2022-09-01T06:28:54;4.60;;;3.45;;
64550;SDS011;50945;44.472;-123.352;2022-09-01T06:31:23;5.85;;;3.60;;
64550;SDS011;50945;44.472;-123.352;2022-09-01T06:33:51;4.95;;;3.40;;
64550;SDS011;50945;44.472;-123.352;2022-09-01T06:36:20;5.80;;;3.35;;
64550;SDS011;50945;44.472;-123.352;2022-09-01T06:38:50;4.05;;;3.20;;
64550;SDS011;50945;44.472;-123.352;2022-09-01T06:41:20;5.45;;;4.20;;
64550;SDS011;50945;44.472;-123.352;2022-09-01T06:43:50;4.05;;;3.33;;
64550;SDS011;50945;44.472;-123.352;2022-09-01T06:46:18;4.90;;;3.17;;
64550;SDS011;50945;44.472;-123.352;2022-09-01T06:48:48;5.80;;;3.72;;
64550;SDS011;50945;44.472;-123.352;2022-09-01T06:51:16;7.10;;;3.22;;
64550;SDS011;50945;44.472;-123.352;2022-09-01T06:53:45;4.32;;;3.22;;
64550;SDS011;50945;44.472;-123.352;2022-09-01T06:56:17;4.38;;;3.28;;
64550;SDS011;50945;44.472;-123.352;2022-09-01T06:58:44;4.63;;;3.15;;
64550;SDS011;50945;44.472;-123.352;2022-09-01T07:01:13;3.97;;;3.58;;
64550;SDS011;50945;44.472;-123.352;2022-09-01T07:03:45;4.90;;;3.20;;
64550;SDS011;50945;44.472;-123.352;2022-09-01T07:06:13;5.28;;;3.05;;
64550;SDS011;50945;44.472;-123.352;2022-09-01T07:08:40;4.55;;;2.83;;
64550;SDS011;50945;44.472;-123.352;2022-09-01T07:11:21;4.03;;;3.05;;
64550;SDS011;50945;44.472;-123.352;2022-09-01T07:13:52;4.15;;;3.05;;
64550;SDS011;50945;44.472;-123.352;2022-09-01T07:16:22;5.57;;;3.35;;
64550;SDS011;50945;44.472;-123.352;2022-09-01T07:18:51;5.60;;;3.15;;
64550;SDS011;50945;44.472;-123.352;2022-09-01T07:21:24;4.60;;;3.20;;
64550;SDS011;50945;44.472;-123.352;2022-09-01T07:23:52;7.22;;;3.65;;
64550;SDS011;50945;44.472;-123.352;2022-09-01T07:26:19;5.43;;;3.40;;
64550;SDS011;50945;44.472;-123.352;2022-09-01T07:28:48;4.80;;;3.22;;
64550;SDS011;50945;44.472;-123.352;2022-09-01T07:31:19;5.88;;;3.50;;
64550;SDS011;50945;44.472;-123.352;2022-09-01T07:36:16;4.38;;;3.53;;
64550;SDS011;50945;44.472;-123.352;2022-09-01T07:38:43;5.32;;;3.33;;
64550;SDS011;50945;44.472;-123.352;2022-09-01T07:41:10;3.83;;;3.08;;
64550;SDS011;50945;44.472;-123.352;2022-09-01T07:43:37;4.07;;;3.20;;
64550;SDS011;50945;44.472;-123.352;2022-09-01T07:46:07;4.43;;;2.88;;
64550;SDS011;50945;44.472;-123.352;2022-09-01T07:48:33;4.57;;;3.58;;
64550;SDS011;50945;44.472;-123.352;2022-09-01T07:50:59;4.47;;;3.53;;
64550;SDS011;50945;44.472;-123.352;2022-09-01T07:53:26;3.80;;;3.22;;
64550;SDS011;50945;44.472;-123.352;2022-09-01T07:55:56;3.80;;;3.17;;
64550;SDS011;50945;44.472;-123.352;2022-09-01T07:58:25;4.82;;;3.45;;
64550;SDS011;50945;44.472;-123.352;2022-09-01T08:00:54;6.25;;;3.20;;
64550;SDS011;50945;44.472;-123.352;2022-09-01T08:03:22;3.53;;;2.58;;
64550;SDS011;50945;44.472;-123.352;2022-09-01T08:05:50;4.50;;;3.78;;
64550;SDS011;50945;44.472;-123.352;2022-09-01T08:08:22;5.80;;;3.55;;
64550;SDS011;50945;44.472;-123.352;2022-09-01T08:10:49;3.38;;;3.08;;
64550;SDS011;50945;44.472;-123.352;2022-09-01T08:13:15;3.25;;;2.95;;
64550;SDS011;50945;44.472;-123.352;2022-09-01T08:15:42;4.32;;;2.83;;
64550;SDS011;50945;44.472;-123.352;2022-09-01T08:18:09;4.85;;;3.08;;
64550;SDS011;50945;44.472;-123.352;2022-09-01T08:20:39;5.60;;;3.20;;
64550;SDS011;50945;44.472;-123.352;2022-09-01T08:23:10;4.30;;;2.90;;
64550;SDS011;50945;44.472;-123.352;2022-09-01T08:25:39;4.00;;;2.75;;
64550;SDS011;50945;44.472;-123.352;2022-09-01T08:28:07;4.28;;;3.00;;
64550;SDS011;50945;44.472;-123.352;2022-09-01T08:30:34;4.15;;;2.83;;
64550;SDS011;50945;44.472;-123.352;2022-09-01T08:33:02;5.13;;;3.35;;
64550;SDS011;50945;44.472;-123.352;2022-09-01T08:35:28;5.05;;;2.72;;
64550;SDS011;50945;44.472;-123.352;2022-09-01T08:40:21;4.43;;;3.08;;
64550;SDS011;50945;44.472;-123.352;2022-09-01T08:45:52;3.22;;;2.72;;
64550;SDS011;50945;44.472;-123.352;2022-09-01T08:48:40;4.53;;;3.03;;
64550;SDS011;50945;44.472;-123.352;2022-09-01T08:51:34;5.45;;;3.35;;
64550;SDS011;50945;44.472;-123.352;2022-09-01T08:56:53;2.85;;;2.28;;
64550;SDS011;50945;44.472;-123.352;2022-09-01T08:59:22;3.72;;;3.05;;
64550;SDS011;50945;44.472;-123.352;2022-09-01T09:09:34;3.95;;;2.58;;
64550;SDS011;50945;44.472;-123.352;2022-09-01T09:20:46;4.25;;;3.00;;
64550;SDS011;50945;44.472;-123.352;2022-09-01T09:23:30;4.72;;;3.10;;
64550;SDS011;50945;44.472;-123.352;2022-09-01T09:26:01;4.72;;;2.85;;
64550;SDS011;50945;44.472;-123.352;2022-09-01T09:28:27;3.90;;;3.10;;
64550;SDS011;50945;44.472;-123.352;2022-09-01T09:33:54;3.42;;;2.95;;
64550;SDS011;50945;44.472;-123.352;2022-09-01T09:36:23;6.80;;;3.30;;
64550;SDS011;50945;44.472;-123.352;2022-09-01T09:41:33;5.05;;;3.08;;
64550;SDS011;50945;44.472;-123.352;2022-09-01T09:44:04;3.28;;;2.92;;
64550;SDS011;50945;44.472;-123.352;2022-09-01T09:46:37;5.45;;;3.53;;
64550;SDS011;50945;44.472;-123.352;2022-09-01T09:49:18;4.70;;;3.47;;
64550;SDS011;50945;44.472;-123.352;2022-09-01T09:54:30;4.15;;;2.85;;
64550;SDS011;50945;44.472;-123.352;2022-09-01T10:08:07;4.93;;;3.42;;
64550;SDS011;50945;44.472;-123.352;2022-09-01T10:10:38;5.07;;;3.53;;
64550;SDS011;50945;44.472;-123.352;2022-09-01T10:13:08;4.13;;;3.00;;
64550;SDS011;50945;44.472;-123.352;2022-09-01T10:15:39;4.78;;;3.08;;
64550;SDS011;50945;44.472;-123.352;2022-09-01T10:18:12;4.18;;;3.53;;
64550;SDS011;50945;44.472;-123.352;2022-09-01T10:20:48;4.45;;;3.58;;
64550;SDS011;50945;44.472;-123.352;2022-09-01T10:23:20;6.57;;;3.65;;
64550;SDS011;50945;44.472;-123.352;2022-09-01T10:25:50;4.05;;;2.92;;
64550;SDS011;50945;44.472;-123.352;2022-09-01T10:28:20;4.75;;;2.70;;
64550;SDS011;50945;44.472;-123.352;2022-09-01T10:30:49;5.05;;;3.10;;
64550;SDS011;50945;44.472;-123.352;2022-09-01T10:33:19;4.15;;;3.15;;
64550;SDS011;50945;44.472;-123.352;2022-09-01T10:35:52;5.03;;;3.00;;
64550;SDS011;50945;44.472;-123.352;2022-09-01T10:38:21;4.20;;;3.20;;
64550;SDS011;50945;44.472;-123.352;2022-09-01T10:40:50;3.70;;;2.80;;
64550;SDS011;50945;44.472;-123.352;2022-09-01T10:43:39;4.43;;;3.38;;
64550;SDS011;50945;44.472;-123.352;2022-09-01T10:48:42;5.30;;;3.10;;
64550;SDS011;50945;44.472;-123.352;2022-09-01T10:53:40;5.85;;;3.17;;
64550;SDS011;50945;44.472;-123.352;2022-09-01T10:56:34;4.68;;;3.05;;
64550;SDS011;50945;44.472;-123.352;2022-09-01T11:02:16;3.85;;;2.80;;
64550;SDS011;50945;44.472;-123.352;2022-09-01T11:07:12;3.97;;;3.03;;
64550;SDS011;50945;44.472;-123.352;2022-09-01T11:15:34;4.30;;;3.20;;
64550;SDS011;50945;44.472;-123.352;2022-09-01T11:18:07;5.20;;;3.78;;
64550;SDS011;50945;44.472;-123.352;2022-09-01T11:20:38;6.00;;;3.47;;
64550;SDS011;50945;44.472;-123.352;2022-09-01T11:23:27;4.13;;;3.22;;
64550;SDS011;50945;44.472;-123.352;2022-09-01T11:25:57;4.00;;;3.20;;
64550;SDS011;50945;44.472;-123.352;2022-09-01T11:28:43;5.30;;;3.42;;
64550;SDS011;50945;44.472;-123.352;2022-09-01T11:31:13;4.63;;;3.40;;
64550;SDS011;50945;44.472;-123.352;2022-09-01T11:34:17;4.97;;;3.25;;
64550;SDS011;50945;44.472;-123.352;2022-09-01T11:36:52;7.30;;;3.30;;
64550;SDS011;50945;44.472;-123.352;2022-09-01T11:39:30;5.13;;;3.10;;
64550;SDS011;50945;44.472;-123.352;2022-09-01T11:47:41;3.45;;;2.78;;
64550;SDS011;50945;44.472;-123.352;2022-09-01T11:52:54;5.43;;;2.70;;
64550;SDS011;50945;44.472;-123.352;2022-09-01T11:55:28;4.50;;;3.15;;
64550;SDS011;50945;44.472;-123.352;2022-09-01T11:57:57;6.57;;;3.22;;
64550;SDS011;50945;44.472;-123.352;2022-09-01T12:00:25;3.40;;;2.70;;
64550;SDS011;50945;44.472;-123.352;2022-09-01T12:02:57;5.13;;;3.38;;
64550;SDS011;50945;44.472;-123.352;2022-09-01T12:07:59;4.20;;;3.13;;
64550;SDS011;50945;44.472;-123.352;2022-09-01T12:10:32;5.65;;;3.20;;
64550;SDS011;50945;44.472;-123.352;2022-09-01T12:13:06;4.00;;;3.05;;
64550;SDS011;50945;44.472;-123.352;2022-09-01T12:15:35;3.55;;;3.10;;
64550;SDS011;50945;44.472;-123.352;2022-09-01T12:18:18;4.35;;;3.00;;
64550;SDS011;50945;44.472;-123.352;2022-09-01T12:20:48;3.83;;;2.97;;
64550;SDS011;50945;44.472;-123.352;2022-09-01T12:25:50;5.38;;;3.42;;
64550;SDS011;50945;44.472;-123.352;2022-09-01T12:28:43;3.83;;;3.17;;
64550;SDS011;50945;44.472;-123.352;2022-09-01T12:31:17;4.30;;;3.15;;
64550;SDS011;50945;44.472;-123.352;2022-09-01T12:33:49;4.60;;;3.30;;
64550;SDS011;50945;44.472;-123.352;2022-09-01T12:36:26;4.53;;;3.13;;
64550;SDS011;50945;44.472;-123.352;2022-09-01T12:38:55;2.85;;;2.55;;
64550;SDS011;50945;44.472;-123.352;2022-09-01T12:41:42;3.10;;;2.65;;
64550;SDS011;50945;44.472;-123.352;2022-09-01T12:44:27;4.18;;;2.75;;
64550;SDS011;50945;44.472;-123.352;2022-09-01T12:49:43;4.38;;;3.15;;
64550;SDS011;50945;44.472;-123.352;2022-09-01T12:57:33;5.20;;;3.40;;
64550;SDS011;50945;44.472;-123.352;2022-09-01T13:00:06;4.10;;;2.80;;
64550;SDS011;50945;44.472;-123.352;2022-09-01T13:05:24;3.47;;;2.92;;
64550;SDS011;50945;44.472;-123.352;2022-09-01T13:07:58;4.72;;;2.80;;
64550;SDS011;50945;44.472;-123.352;2022-09-01T13:10:29;5.30;;;2.95;;
64550;SDS011;50945;44.472;-123.352;2022-09-01T13:12:58;4.10;;;2.80;;
64550;SDS011;50945;44.472;-123.352;2022-09-01T13:15:26;5.15;;;2.90;;
64550;SDS011;50945;44.472;-123.352;2022-09-01T13:17:52;4.65;;;3.50;;
64550;SDS011;50945;44.472;-123.352;2022-09-01T13:20:18;5.03;;;2.83;;
64550;SDS011;50945;44.472;-123.352;2022-09-01T13:22:44;3.70;;;3.00;;
64550;SDS011;50945;44.472;-123.352;2022-09-01T13:25:11;5.57;;;3.15;;
64550;SDS011;50945;44.472;-123.352;2022-09-01T13:27:40;5.65;;;3.40;;
64550;SDS011;50945;44.472;-123.352;2022-09-01T13:30:12;4.70;;;2.97;;
64550;SDS011;50945;44.472;-123.352;2022-09-01T13:32:41;4.05;;;3.10;;
64550;SDS011;50945;44.472;-123.352;2022-09-01T13:35:09;5.00;;;3.30;;
64550;SDS011;50945;44.472;-123.352;2022-09-01T13:37:36;4.07;;;2.75;;
64550;SDS011;50945;44.472;-123.352;2022-09-01T13:40:04;3.72;;;2.67;;
64550;SDS011;50945;44.472;-123.352;2022-09-01T13:42:32;4.60;;;3.15;;
64550;SDS011;50945;44.472;-123.352;2022-09-01T13:44:59;4.53;;;3.40;;
64550;SDS011;50945;44.472;-123.352;2022-09-01T13:47:25;3.75;;;3.03;;
64550;SDS011;50945;44.472;-123.352;2022-09-01T13:52:18;4.15;;;2.92;;
64550;SDS011;50945;44.472;-123.352;2022-09-01T13:54:45;5.60;;;2.95;;
64550;SDS011;50945;44.472;-123.352;2022-09-01T13:57:12;4.15;;;3.28;;
64550;SDS011;50945;44.472;-123.352;2022-09-01T13:59:40;5.97;;;3.25;;
64550;SDS011;50945;44.472;-123.352;2022-09-01T14:02:06;5.55;;;3.45;;
64550;SDS011;50945;44.472;-123.352;2022-09-01T14:04:33;6.70;;;2.72;;
64550;SDS011;50945;44.472;-123.352;2022-09-01T14:06:59;3.83;;;2.83;;
64550;SDS011;50945;44.472;-123.352;2022-09-01T14:09:25;3.78;;;2.85;;
64550;SDS011;50945;44.472;-123.352;2022-09-01T14:11:52;3.80;;;3.00;;
64550;SDS011;50945;44.472;-123.352;2022-09-01T14:14:20;4.85;;;3.03;;
64550;SDS011;50945;44.472;-123.352;2022-09-01T14:16:46;4.53;;;3.13;;
64550;SDS011;50945;44.472;-123.352;2022-09-01T14:19:13;4.03;;;2.90;;
64550;SDS011;50945;44.472;-123.352;2022-09-01T14:21:40;5.35;;;3.10;;
64550;SDS011;50945;44.472;-123.352;2022-09-01T14:24:06;5.85;;;3.08;;
64550;SDS011;50945;44.472;-123.352;2022-09-01T14:26:32;4.30;;;3.22;;
64550;SDS011;50945;44.472;-123.352;2022-09-01T14:28:59;4.50;;;2.95;;
64550;SDS011;50945;44.472;-123.352;2022-09-01T14:31:27;7.13;;;3.13;;
64550;SDS011;50945;44.472;-123.352;2022-09-01T14:33:56;4.68;;;2.95;;
64550;SDS011;50945;44.472;-123.352;2022-09-01T14:36:24;4.72;;;3.28;;
64550;SDS011;50945;44.472;-123.352;2022-09-01T14:38:51;5.03;;;2.92;;
64550;SDS011;50945;44.472;-123.352;2022-09-01T14:41:19;3.22;;;2.47;;
64550;SDS011;50945;44.472;-123.352;2022-09-01T14:43:48;10.30;;;3.55;;
64550;SDS011;50945;44.472;-123.352;2022-09-01T14:46:16;6.53;;;3.20;;
64550;SDS011;50945;44.472;-123.352;2022-09-01T14:48:43;2.85;;;2.60;;
64550;SDS011;50945;44.472;-123.352;2022-09-01T14:51:17;4.80;;;3.33;;
64550;SDS011;50945;44.472;-123.352;2022-09-01T14:53:49;5.05;;;3.03;;
64550;SDS011;50945;44.472;-123.352;2022-09-01T14:56:16;6.78;;;3.30;;
64550;SDS011;50945;44.472;-123.352;2022-09-01T14:58:44;4.20;;;3.33;;
64550;SDS011;50945;44.472;-123.352;2022-09-01T15:01:14;5.20;;;3.10;;
64550;SDS011;50945;44.472;-123.352;2022-09-01T15:03:42;4.00;;;2.80;;
64550;SDS011;50945;44.472;-123.352;2022-09-01T15:06:14;7.13;;;3.25;;
64550;SDS011;50945;44.472;-123.352;2022-09-01T15:08:41;4.65;;;2.85;;
64550;SDS011;50945;44.472;-123.352;2022-09-01T15:11:08;3.78;;;3.13;;
64550;SDS011;50945;44.472;-123.352;2022-09-01T15:13:36;3.88;;;3.30;;
64550;SDS011;50945;44.472;-123.352;2022-09-01T15:16:03;6.28;;;3.25;;
64550;SDS011;50945;44.472;-123.352;2022-09-01T15:18:36;4.82;;;3.25;;
64550;SDS011;50945;44.472;-123.352;2022-09-01T15:21:03;3.20;;;2.80;;
64550;SDS011;50945;44.472;-123.352;2022-09-01T15:23:30;4.97;;;3.60;;
64550;SDS011;50945;44.472;-123.352;2022-09-01T15:25:56;5.68;;;3.38;;
64550;SDS011;50945;44.472;-123.352;2022-09-01T15:28:24;4.78;;;3.35;;
64550;SDS011;50945;44.472;-123.352;2022-09-01T15:30:51;4.80;;;3.03;;
64550;SDS011;50945;44.472;-123.352;2022-09-01T15:33:18;5.55;;;3.08;;
64550;SDS011;50945;44.472;-123.352;2022-09-01T15:35:45;5.60;;;3.42;;
64550;SDS011;50945;44.472;-123.352;2022-09-01T15:40:39;4.95;;;3.47;;
64550;SDS011;50945;44.472;-123.352;2022-09-01T15:43:07;5.68;;;3.80;;
64550;SDS011;50945;44.472;-123.352;2022-09-01T15:45:33;4.68;;;3.20;;
64550;SDS011;50945;44.472;-123.352;2022-09-01T15:50:26;4.25;;;3.05;;
64550;SDS011;50945;44.472;-123.352;2022-09-01T15:52:57;5.35;;;3.88;;
64550;SDS011;50945;44.472;-123.352;2022-09-01T15:55:29;5.22;;;3.58;;
64550;SDS011;50945;44.472;-123.352;2022-09-01T15:58:05;5.50;;;3.22;;
64550;SDS011;50945;44.472;-123.352;2022-09-01T16:00:32;9.13;;;3.35;;
64550;SDS011;50945;44.472;-123.352;2022-09-01T16:02:59;4.57;;;3.33;;
64550;SDS011;50945;44.472;-123.352;2022-09-01T16:05:34;4.97;;;3.58;;